Kapowsin, Washington
Current Conditions -  °F | °C
As of 12:58 AM on Friday 24 Oct 2014 (Local Time) from KTCM Reporting Station
Light Rain Light Rain  
Wind Chill: 46°   Ceiling: 5000
Heat Index: 48°   Visibility: 10mi
Dew Point: 48°   Wind: 5mph
Humidity: 99%   Direction: 120°ESE
Pressure: 30.03"   Gusts: NA
Location:  46.99°N, 122.23°W
Report Text: KTCM 240758Z AUTO 12004KT 10SM -RA FEW028 BKN050 09/09 A3003 RMK AO2 SLP173 P0004 T00900088 401530089 $
Loading
Personal Weather Stations






























Interactive Weather Map
Tropical Storm Tracking
New forecast layout! Learn more

10-Day Weather Forecast

Advertisements
Track Severe Weather on mobile